Time;durP1;ratioP1;P1;durP2;ratioP2;P2;SDS_P1;SDS_P2;PMS_P1;PMS_P2;Temp;Humidity;BMP_temperature;BMP_pressure;BME280_temperature;BME280_humidity;BME280_pressure;Samples;Min_cycle;Max_cycle;Signal;HPM_P1;HPM_P2
2022/01/18 00:01:50;;;;;;;;;;;7.60;87.90;;;;;;4985555;28;19922;-81
2022/01/18 00:04:16;;;;;;;;;;;7.60;88.00;;;;;;4991924;28;19961;-82
2022/01/18 00:06:45;;;;;;;;;;;7.60;88.10;;;;;;4993817;28;19921;-81
2022/01/18 00:09:11;;;;;;;;;;;7.60;87.70;;;;;;4992536;28;19925;-80
2022/01/18 00:11:48;;;;;;;;;;;7.70;87.60;;;;;;5007568;28;19918;-81
2022/01/18 00:15:16;;;;;;;;;;;7.60;87.80;;;;;;4994431;28;19914;-81
2022/01/18 00:17:40;;;;;;;;;;;7.60;88.20;;;;;;4991720;28;19929;-79
2022/01/18 00:20:05;;;;;;;;;;;7.60;88.30;;;;;;5008908;28;19940;-80
2022/01/18 00:22:31;;;;;;;;;;;7.60;88.30;;;;;;4993324;28;19914;-80
2022/01/18 00:24:59;;;;;;;;;;;7.60;88.40;;;;;;4993956;28;19914;-80
2022/01/18 00:27:24;;;;;;;;;;;7.60;88.50;;;;;;4993614;28;19921;-80
2022/01/18 00:30:25;;;;;;;;;;;7.60;88.60;;;;;;4997027;28;19925;-80
2022/01/18 00:33:14;;;;;;;;;;;7.60;88.50;;;;;;4996421;28;20380;-80
2022/01/18 00:35:42;;;;;;;;;;;7.70;88.40;;;;;;5006840;28;20073;-80
2022/01/18 00:38:17;;;;;;;;;;;7.60;88.40;;;;;;4994856;28;19964;-81
2022/01/18 00:40:43;;;;;;;;;;;7.60;88.40;;;;;;5010137;28;20240;-80
2022/01/18 00:43:09;;;;;;;;;;;7.60;88.40;;;;;;4998461;28;20043;-80
2022/01/18 00:45:34;;;;;;;;;;;7.60;88.40;;;;;;5002095;28;19914;-80
2022/01/18 00:48:01;;;;;;;;;;;7.80;87.80;;;;;;4992970;28;19945;-80
2022/01/18 00:50:31;;;;;;;;;;;7.70;87.80;;;;;;5009617;28;19971;-80
2022/01/18 00:52:57;;;;;;;;;;;7.60;87.90;;;;;;4994006;28;20013;-79
2022/01/18 00:55:24;;;;;;;;;;;7.60;88.10;;;;;;4994038;28;20005;-80
2022/01/18 00:57:50;;;;;;;;;;;7.60;88.00;;;;;;4996650;28;19986;-80
2022/01/18 01:00:15;;;;;;;;;;;7.60;88.00;;;;;;4993518;28;20416;-80
2022/01/18 01:02:41;;;;;;;;;;;7.60;88.20;;;;;;4993724;28;20306;-79
2022/01/18 01:05:06;;;;;;;;;;;7.60;88.30;;;;;;4994745;28;20352;-80
2022/01/18 01:07:32;;;;;;;;;;;7.60;88.20;;;;;;4994464;28;20331;-79
2022/01/18 01:09:57;;;;;;;;;;;7.60;88.10;;;;;;5009096;28;19914;-79
2022/01/18 01:12:26;;;;;;;;;;;7.70;88.00;;;;;;4994091;28;20303;-80
2022/01/18 01:14:53;;;;;;;;;;;7.60;87.50;;;;;;4996004;28;20005;-80
2022/01/18 01:17:37;;;;;;;;;;;7.60;87.80;;;;;;4993613;28;20381;-80
2022/01/18 01:34:14;;;;;;;;;;;7.50;88.00;;;;;;4993403;28;20000;-79
2022/01/18 01:42:15;;;;;;;;;;;7.60;86.60;;;;;;4998311;28;19920;-80
2022/01/18 01:44:44;;;;;;;;;;;7.50;87.10;;;;;;5003567;28;19918;-81
2022/01/18 01:47:11;;;;;;;;;;;7.60;87.00;;;;;;5013912;28;19920;-79
2022/01/18 01:49:36;;;;;;;;;;;7.50;87.40;;;;;;4995556;28;19920;-80
2022/01/18 01:52:06;;;;;;;;;;;7.60;87.50;;;;;;4991218;28;19997;-80
2022/01/18 01:54:31;;;;;;;;;;;7.60;87.40;;;;;;4991570;28;20520;-81
2022/01/18 01:56:57;;;;;;;;;;;7.60;87.50;;;;;;4992489;28;19913;-81
2022/01/18 01:59:22;;;;;;;;;;;7.60;87.50;;;;;;4993372;28;19968;-80
2022/01/18 02:01:49;;;;;;;;;;;7.60;87.80;;;;;;5004739;28;19924;-79
2022/01/18 02:04:14;;;;;;;;;;;7.50;88.00;;;;;;5022002;28;19918;-81
2022/01/18 02:06:40;;;;;;;;;;;7.40;88.40;;;;;;4995429;28;19928;-81
2022/01/18 02:09:05;;;;;;;;;;;7.40;88.60;;;;;;4993616;28;19925;-81
2022/01/18 02:11:31;;;;;;;;;;;7.40;88.80;;;;;;5008725;28;19914;-81
2022/01/18 02:13:57;;;;;;;;;;;7.30;89.10;;;;;;4993122;28;19914;-81
2022/01/18 02:21:51;;;;;;;;;;;7.40;89.30;;;;;;4992713;28;19997;-81
2022/01/18 02:24:19;;;;;;;;;;;7.50;89.10;;;;;;4998081;28;19914;-81
2022/01/18 02:26:45;;;;;;;;;;;7.50;89.10;;;;;;4993279;28;19976;-81
2022/01/18 02:29:11;;;;;;;;;;;7.50;89.10;;;;;;4993649;28;19929;-81
2022/01/18 02:31:36;;;;;;;;;;;7.50;89.10;;;;;;4992918;28;20044;-81
2022/01/18 02:34:07;;;;;;;;;;;7.60;88.80;;;;;;4993126;28;20005;-81
2022/01/18 02:36:32;;;;;;;;;;;7.60;88.80;;;;;;4993496;28;19929;-79
2022/01/18 02:38:58;;;;;;;;;;;7.50;89.00;;;;;;4993953;28;19918;-81
2022/01/18 02:41:28;;;;;;;;;;;7.50;89.20;;;;;;4996373;28;19921;-81
2022/01/18 02:43:55;;;;;;;;;;;7.50;89.00;;;;;;4990352;28;19922;-81
2022/01/18 02:46:21;;;;;;;;;;;7.40;89.20;;;;;;4996269;28;19921;-80
2022/01/18 02:48:47;;;;;;;;;;;7.40;89.40;;;;;;4996024;28;20295;-81
2022/01/18 02:51:12;;;;;;;;;;;7.40;89.50;;;;;;4994622;28;19933;-82
2022/01/18 02:54:10;;;;;;;;;;;7.40;89.70;;;;;;5011197;28;19932;-81
2022/01/18 02:56:41;;;;;;;;;;;7.40;89.70;;;;;;4961060;28;20009;-81
2022/01/18 03:00:06;;;;;;;;;;;7.40;89.70;;;;;;4993721;28;19914;-81
2022/01/18 03:04:37;;;;;;;;;;;7.50;89.30;;;;;;4996034;28;20358;-80
2022/01/18 03:07:03;;;;;;;;;;;7.40;89.40;;;;;;5002699;28;19918;-81
2022/01/18 03:09:29;;;;;;;;;;;7.50;89.60;;;;;;5012772;28;19921;-82
2022/01/18 03:11:55;;;;;;;;;;;7.40;89.50;;;;;;4997305;28;20272;-81
2022/01/18 03:14:20;;;;;;;;;;;7.50;89.60;;;;;;4995391;28;19917;-81
2022/01/18 03:16:46;;;;;;;;;;;7.50;89.50;;;;;;4996765;28;19913;-81
2022/01/18 03:19:11;;;;;;;;;;;7.50;89.20;;;;;;5010726;28;19920;-82
2022/01/18 03:21:37;;;;;;;;;;;7.50;89.30;;;;;;4996005;28;19914;-82
2022/01/18 03:29:44;;;;;;;;;;;7.40;89.10;;;;;;4998356;28;19960;-81
2022/01/18 03:32:10;;;;;;;;;;;7.50;89.20;;;;;;4998795;28;19914;-81
2022/01/18 03:34:35;;;;;;;;;;;7.50;89.10;;;;;;5012109;28;19964;-81
2022/01/18 03:37:01;;;;;;;;;;;7.40;89.10;;;;;;4996168;28;19928;-81
2022/01/18 03:39:26;;;;;;;;;;;7.50;89.10;;;;;;4996545;28;20304;-80
2022/01/18 03:41:55;;;;;;;;;;;7.40;89.30;;;;;;4996318;28;19921;-81
2022/01/18 03:44:22;;;;;;;;;;;7.40;89.10;;;;;;4996126;28;20017;-80
2022/01/18 03:46:53;;;;;;;;;;;7.40;89.40;;;;;;4998827;28;19918;-81
2022/01/18 03:49:20;;;;;;;;;;;7.30;89.30;;;;;;5012053;28;19925;-81
2022/01/18 03:51:45;;;;;;;;;;;7.40;89.20;;;;;;4994412;28;19922;-80
2022/01/18 03:54:13;;;;;;;;;;;7.40;89.30;;;;;;4994087;28;19918;-80
2022/01/18 03:56:38;;;;;;;;;;;7.40;89.30;;;;;;4992653;28;19914;-81
2022/01/18 03:59:04;;;;;;;;;;;7.40;89.20;;;;;;4992495;28;19924;-81
2022/01/18 04:01:29;;;;;;;;;;;7.40;89.20;;;;;;5019925;28;19941;-79
2022/01/18 04:03:55;;;;;;;;;;;7.30;89.30;;;;;;5003559;28;20322;-81
2022/01/18 04:06:20;;;;;;;;;;;7.40;89.40;;;;;;5010895;28;19997;-81
2022/01/18 04:08:46;;;;;;;;;;;7.30;89.20;;;;;;5010555;28;19910;-80
2022/01/18 04:11:11;;;;;;;;;;;7.20;89.30;;;;;;5009710;28;20265;-81
2022/01/18 04:13:37;;;;;;;;;;;7.30;89.40;;;;;;4995247;28;19910;-81
2022/01/18 04:16:02;;;;;;;;;;;7.20;89.50;;;;;;4994775;28;19917;-81
2022/01/18 04:18:35;;;;;;;;;;;7.20;89.40;;;;;;5017488;28;19913;-80
2022/01/18 04:28:58;;;;;;;;;;;7.40;88.70;;;;;;4995482;28;19910;-81
2022/01/18 04:31:25;;;;;;;;;;;7.40;88.90;;;;;;5010713;28;20008;-81
2022/01/18 04:33:51;;;;;;;;;;;7.30;89.00;;;;;;4993076;28;20182;-82
2022/01/18 04:36:17;;;;;;;;;;;7.30;89.00;;;;;;4993868;28;19914;-82
2022/01/18 04:38:42;;;;;;;;;;;7.30;89.00;;;;;;4993595;28;19910;-81
2022/01/18 04:41:12;;;;;;;;;;;7.30;89.10;;;;;;4994857;28;19921;-81
2022/01/18 04:43:52;;;;;;;;;;;7.30;89.00;;;;;;4994988;28;19976;-81
2022/01/18 04:49:03;;;;;;;;;;;7.30;89.00;;;;;;4995957;28;19942;-82
2022/01/18 04:51:28;;;;;;;;;;;7.30;88.80;;;;;;4994162;28;19925;-81
2022/01/18 04:53:59;;;;;;;;;;;7.30;88.80;;;;;;4992784;28;19914;-81
2022/01/18 04:58:55;;;;;;;;;;;7.20;89.00;;;;;;4998678;28;19917;-81
2022/01/18 05:01:20;;;;;;;;;;;7.20;89.30;;;;;;4997062;28;19914;-81
2022/01/18 05:03:46;;;;;;;;;;;7.30;89.20;;;;;;4994038;28;20042;-81
2022/01/18 05:06:15;;;;;;;;;;;7.20;89.20;;;;;;4994821;28;20391;-82
2022/01/18 05:08:41;;;;;;;;;;;7.20;89.00;;;;;;4986766;28;20000;-81
2022/01/18 05:11:09;;;;;;;;;;;7.30;88.80;;;;;;5005364;28;19922;-80
2022/01/18 05:16:22;;;;;;;;;;;7.30;89.10;;;;;;4994301;28;19914;-81
2022/01/18 05:21:33;;;;;;;;;;;7.30;88.90;;;;;;4994943;28;19929;-81
2022/01/18 05:23:59;;;;;;;;;;;7.30;88.70;;;;;;5004572;28;19993;-82
2022/01/18 05:26:25;;;;;;;;;;;7.20;88.80;;;;;;4992815;28;20310;-82
2022/01/18 05:28:51;;;;;;;;;;;7.20;89.00;;;;;;4994532;28;19980;-81
2022/01/18 05:31:16;;;;;;;;;;;7.20;89.10;;;;;;4988700;28;19914;-81
2022/01/18 05:33:42;;;;;;;;;;;7.30;88.70;;;;;;4993427;28;20021;-81
2022/01/18 05:36:09;;;;;;;;;;;7.20;88.80;;;;;;4993551;28;19918;-83
2022/01/18 05:38:35;;;;;;;;;;;7.30;88.60;;;;;;4991428;28;19922;-83
2022/01/18 05:41:01;;;;;;;;;;;7.30;88.40;;;;;;5006210;28;19921;-80
2022/01/18 05:43:27;;;;;;;;;;;7.20;88.60;;;;;;4997331;28;19972;-82
2022/01/18 05:45:53;;;;;;;;;;;7.20;88.60;;;;;;5008974;28;20208;-83
2022/01/18 05:48:18;;;;;;;;;;;7.10;88.80;;;;;;4993981;28;19956;-83
2022/01/18 05:50:44;;;;;;;;;;;7.20;89.00;;;;;;4993967;28;20245;-81
2022/01/18 05:53:09;;;;;;;;;;;7.10;89.10;;;;;;4989837;28;20261;-81
2022/01/18 05:55:35;;;;;;;;;;;7.20;89.20;;;;;;4990145;28;19914;-82
2022/01/18 05:58:00;;;;;;;;;;;7.20;88.90;;;;;;4987733;28;19917;-81
2022/01/18 06:00:27;;;;;;;;;;;7.30;89.10;;;;;;4992388;28;19921;-79
2022/01/18 06:08:06;;;;;;;;;;;7.20;88.90;;;;;;4991304;28;19933;-80
2022/01/18 06:10:31;;;;;;;;;;;7.10;89.10;;;;;;4989958;28;19918;-84
2022/01/18 06:13:00;;;;;;;;;;;7.10;89.20;;;;;;4988347;28;19921;-84
2022/01/18 06:15:25;;;;;;;;;;;7.10;89.20;;;;;;4995786;28;19917;-86
2022/01/18 06:17:51;;;;;;;;;;;7.20;89.10;;;;;;5006800;28;19918;-86
2022/01/18 06:20:16;;;;;;;;;;;7.30;88.90;;;;;;4994466;28;20027;-86
2022/01/18 06:22:42;;;;;;;;;;;7.10;88.80;;;;;;5004603;28;20365;-83
2022/01/18 06:25:08;;;;;;;;;;;7.20;89.20;;;;;;4995064;28;19918;-85
2022/01/18 06:27:34;;;;;;;;;;;7.20;89.20;;;;;;4992916;28;20008;-84
2022/01/18 06:29:59;;;;;;;;;;;7.30;89.10;;;;;;4992693;28;19948;-82
2022/01/18 06:32:25;;;;;;;;;;;7.30;88.90;;;;;;4995110;28;20547;-84
2022/01/18 06:34:51;;;;;;;;;;;7.30;88.80;;;;;;4994484;28;19914;-84
2022/01/18 06:37:16;;;;;;;;;;;7.30;88.90;;;;;;4995040;28;19914;-86
2022/01/18 06:39:42;;;;;;;;;;;7.30;88.80;;;;;;4992327;28;19997;-85
2022/01/18 06:42:10;;;;;;;;;;;7.20;89.00;;;;;;5009234;28;19914;-84
2022/01/18 06:44:36;;;;;;;;;;;7.20;88.90;;;;;;4993161;28;19914;-81
2022/01/18 06:47:01;;;;;;;;;;;7.20;88.70;;;;;;4988479;28;19917;-81
2022/01/18 06:49:27;;;;;;;;;;;7.20;89.00;;;;;;4992400;28;20005;-81
2022/01/18 06:51:52;;;;;;;;;;;7.20;89.10;;;;;;4991274;28;19933;-83
2022/01/18 06:54:18;;;;;;;;;;;7.20;89.10;;;;;;4996894;28;19909;-81
2022/01/18 06:56:47;;;;;;;;;;;7.20;89.00;;;;;;5009274;28;20357;-82
2022/01/18 06:59:13;;;;;;;;;;;7.30;89.00;;;;;;5008491;28;20272;-83
2022/01/18 07:01:39;;;;;;;;;;;7.30;88.70;;;;;;4993545;28;19959;-83
2022/01/18 07:04:04;;;;;;;;;;;7.30;88.90;;;;;;4994064;28;19969;-84
2022/01/18 07:06:30;;;;;;;;;;;7.30;88.80;;;;;;4992191;28;19914;-83
2022/01/18 07:08:55;;;;;;;;;;;7.20;88.90;;;;;;4994042;28;19919;-83
2022/01/18 07:11:21;;;;;;;;;;;7.20;88.90;;;;;;4993608;28;20380;-84
2022/01/18 07:13:46;;;;;;;;;;;7.20;89.00;;;;;;4994920;28;19988;-82
2022/01/18 07:16:13;;;;;;;;;;;7.10;89.10;;;;;;4995720;28;19918;-85
2022/01/18 07:18:38;;;;;;;;;;;7.10;89.00;;;;;;5001353;28;20316;-84
2022/01/18 07:21:04;;;;;;;;;;;7.00;88.90;;;;;;5006028;28;19922;-84
2022/01/18 07:23:29;;;;;;;;;;;6.90;89.10;;;;;;4992034;28;19921;-85
2022/01/18 07:25:55;;;;;;;;;;;7.00;89.30;;;;;;4993759;28;19957;-85
2022/01/18 07:28:21;;;;;;;;;;;7.10;89.40;;;;;;4992487;28;20033;-84
2022/01/18 07:30:50;;;;;;;;;;;7.10;89.20;;;;;;4994337;28;19944;-85
2022/01/18 07:33:36;;;;;;;;;;;7.10;89.30;;;;;;5010796;28;19921;-85
2022/01/18 07:36:12;;;;;;;;;;;7.30;89.20;;;;;;5013143;28;19996;-83
2022/01/18 07:38:49;;;;;;;;;;;7.30;89.10;;;;;;5012428;28;19918;-83
2022/01/18 07:41:15;;;;;;;;;;;7.40;89.10;;;;;;4995674;28;19922;-80
2022/01/18 07:43:43;;;;;;;;;;;7.40;88.90;;;;;;4994139;28;20230;-80
2022/01/18 07:46:09;;;;;;;;;;;7.40;88.60;;;;;;4990561;28;19961;-82
2022/01/18 07:48:34;;;;;;;;;;;7.50;88.30;;;;;;4976335;28;19910;-82
2022/01/18 07:51:00;;;;;;;;;;;7.60;88.40;;;;;;4980696;28;20005;-82
2022/01/18 07:53:26;;;;;;;;;;;7.60;88.10;;;;;;5011140;28;19913;-81
2022/01/18 07:55:51;;;;;;;;;;;7.60;88.10;;;;;;4994661;28;20017;-79
2022/01/18 07:58:17;;;;;;;;;;;7.70;87.70;;;;;;4995334;28;20337;-80
2022/01/18 08:00:43;;;;;;;;;;;7.70;87.70;;;;;;5010237;28;19910;-82
2022/01/18 08:03:09;;;;;;;;;;;7.70;87.60;;;;;;4994786;28;19914;-84
2022/01/18 08:05:34;;;;;;;;;;;7.70;87.60;;;;;;4976039;28;19914;-83
2022/01/18 08:08:00;;;;;;;;;;;7.80;87.60;;;;;;4993321;28;19932;-85
2022/01/18 08:10:30;;;;;;;;;;;7.90;87.40;;;;;;4993922;28;20372;-84
2022/01/18 08:12:57;;;;;;;;;;;7.90;87.10;;;;;;5008516;28;19910;-83
2022/01/18 08:15:23;;;;;;;;;;;7.90;87.10;;;;;;4996903;28;19909;-84
2022/01/18 08:17:49;;;;;;;;;;;7.90;87.10;;;;;;5001147;28;20257;-81
2022/01/18 08:20:15;;;;;;;;;;;7.90;87.20;;;;;;4987072;28;19924;-83
2022/01/18 08:22:41;;;;;;;;;;;7.90;86.90;;;;;;4993075;28;19941;-85
2022/01/18 08:25:07;;;;;;;;;;;8.00;86.80;;;;;;5000145;28;20612;-85
2022/01/18 08:27:32;;;;;;;;;;;8.00;86.50;;;;;;4997186;28;20099;-82
2022/01/18 08:29:58;;;;;;;;;;;8.10;86.70;;;;;;5012323;28;19910;-83
2022/01/18 08:32:23;;;;;;;;;;;8.10;86.50;;;;;;5000806;28;19924;-82
2022/01/18 08:34:48;;;;;;;;;;;8.10;86.40;;;;;;4993622;28;19918;-83
2022/01/18 08:37:14;;;;;;;;;;;8.10;86.50;;;;;;4995765;28;19913;-83
2022/01/18 08:39:39;;;;;;;;;;;8.10;86.30;;;;;;4995932;28;19928;-83
2022/01/18 08:42:05;;;;;;;;;;;8.20;86.30;;;;;;4987173;28;20357;-83
2022/01/18 08:44:32;;;;;;;;;;;8.20;86.10;;;;;;4995583;28;19921;-85
2022/01/18 08:46:57;;;;;;;;;;;8.10;86.40;;;;;;4995035;28;19918;-85
2022/01/18 08:49:23;;;;;;;;;;;8.30;85.50;;;;;;4995106;28;20435;-85
2022/01/18 08:51:48;;;;;;;;;;;8.30;85.70;;;;;;5002673;28;19997;-83
2022/01/18 08:54:14;;;;;;;;;;;8.40;85.70;;;;;;5012872;28;19972;-82
2022/01/18 08:56:39;;;;;;;;;;;8.30;85.90;;;;;;5013464;28;19956;-83
2022/01/18 08:59:05;;;;;;;;;;;8.20;86.00;;;;;;5021037;28;19920;-82
2022/01/18 09:01:30;;;;;;;;;;;8.30;85.70;;;;;;5005482;28;19914;-83
2022/01/18 09:03:56;;;;;;;;;;;8.50;85.10;;;;;;4979526;28;19907;-83
2022/01/18 09:06:23;;;;;;;;;;;8.30;84.80;;;;;;4996844;28;20021;-83
2022/01/18 09:08:55;;;;;;;;;;;8.30;85.50;;;;;;4988654;28;19925;-83
2022/01/18 09:11:23;;;;;;;;;;;8.40;85.50;;;;;;4978237;28;19953;-84
2022/01/18 09:13:49;;;;;;;;;;;8.50;85.10;;;;;;4997146;28;19921;-83
2022/01/18 09:16:14;;;;;;;;;;;8.40;85.20;;;;;;4998665;28;19913;-84
2022/01/18 09:18:40;;;;;;;;;;;8.30;85.00;;;;;;4994320;28;19925;-83
2022/01/18 09:21:05;;;;;;;;;;;8.50;84.70;;;;;;5013006;28;19920;-82
2022/01/18 09:23:31;;;;;;;;;;;8.60;85.10;;;;;;4984635;28;19925;-84
2022/01/18 09:25:57;;;;;;;;;;;8.60;85.30;;;;;;5025329;28;20158;-83
2022/01/18 09:28:22;;;;;;;;;;;8.60;84.90;;;;;;4996880;28;19925;-84
2022/01/18 09:30:48;;;;;;;;;;;8.80;83.70;;;;;;4999687;28;19949;-84
2022/01/18 09:33:13;;;;;;;;;;;8.60;84.10;;;;;;4999226;28;19910;-85
2022/01/18 09:35:39;;;;;;;;;;;8.60;84.80;;;;;;4999699;28;19916;-83
2022/01/18 09:38:05;;;;;;;;;;;8.80;84.10;;;;;;5000504;28;19910;-84
2022/01/18 09:40:33;;;;;;;;;;;8.80;84.30;;;;;;4995809;28;19968;-81
2022/01/18 09:42:59;;;;;;;;;;;8.80;84.20;;;;;;5008738;28;19922;-82
2022/01/18 09:45:25;;;;;;;;;;;8.70;83.60;;;;;;4984350;28;20009;-86
2022/01/18 09:47:53;;;;;;;;;;;8.60;83.50;;;;;;4979780;28;19918;-86
2022/01/18 09:50:23;;;;;;;;;;;8.60;84.00;;;;;;4976936;28;19910;-84
2022/01/18 09:52:53;;;;;;;;;;;8.50;83.90;;;;;;4975032;28;19933;-82
2022/01/18 09:55:20;;;;;;;;;;;8.50;84.40;;;;;;4987734;28;20385;-80
2022/01/18 09:57:45;;;;;;;;;;;8.60;84.60;;;;;;4977843;28;19913;-81
2022/01/18 10:00:11;;;;;;;;;;;8.80;84.10;;;;;;5007485;28;20347;-81
2022/01/18 10:02:36;;;;;;;;;;;8.60;84.10;;;;;;4988083;28;19914;-79
2022/01/18 10:05:16;;;;;;;;;;;8.90;83.80;;;;;;5009691;28;19964;-81
2022/01/18 10:07:43;;;;;;;;;;;8.90;84.20;;;;;;4989444;28;21648;-79
2022/01/18 10:10:09;;;;;;;;;;;8.90;83.70;;;;;;5005311;28;20341;-81
2022/01/18 10:12:35;;;;;;;;;;;8.90;83.30;;;;;;4993319;28;19922;-80
2022/01/18 10:15:01;;;;;;;;;;;8.90;83.50;;;;;;4991435;28;19973;-79
2022/01/18 10:17:33;;;;;;;;;;;8.90;83.60;;;;;;4992368;28;19913;-82
2022/01/18 10:20:06;;;;;;;;;;;8.90;83.50;;;;;;4993213;28;19913;-82
2022/01/18 10:22:40;;;;;;;;;;;8.90;83.60;;;;;;4992504;28;20303;-81
2022/01/18 10:25:19;;;;;;;;;;;8.90;83.90;;;;;;4990786;28;20012;-81
2022/01/18 10:27:47;;;;;;;;;;;8.90;82.90;;;;;;4992220;28;20008;-80
2022/01/18 10:30:20;;;;;;;;;;;9.00;83.40;;;;;;4995009;28;19921;-81
2022/01/18 10:33:00;;;;;;;;;;;9.10;83.20;;;;;;4992144;28;19914;-80
2022/01/18 10:35:26;;;;;;;;;;;9.10;82.80;;;;;;5011653;28;19949;-81
2022/01/18 10:37:51;;;;;;;;;;;9.00;82.80;;;;;;4995011;28;19917;-80
2022/01/18 10:40:18;;;;;;;;;;;9.00;82.90;;;;;;5003609;28;19964;-82
2022/01/18 10:42:52;;;;;;;;;;;9.10;83.00;;;;;;4987758;28;19929;-82
2022/01/18 10:45:27;;;;;;;;;;;9.00;82.90;;;;;;5007710;28;19925;-81
2022/01/18 10:47:57;;;;;;;;;;;9.00;82.70;;;;;;4994660;28;19930;-81
2022/01/18 10:50:23;;;;;;;;;;;8.90;83.00;;;;;;4996762;28;19989;-80
2022/01/18 10:52:52;;;;;;;;;;;9.00;83.00;;;;;;4992264;28;19988;-79
2022/01/18 10:55:22;;;;;;;;;;;9.00;82.70;;;;;;4993499;28;19918;-83
2022/01/18 10:57:48;;;;;;;;;;;8.90;81.90;;;;;;4987096;28;19922;-81
2022/01/18 11:00:20;;;;;;;;;;;8.90;81.70;;;;;;4995083;28;19910;-81
2022/01/18 11:02:50;;;;;;;;;;;8.90;82.40;;;;;;4994873;28;19914;-83
2022/01/18 11:05:15;;;;;;;;;;;8.70;83.10;;;;;;4994439;28;19925;-81
2022/01/18 11:07:41;;;;;;;;;;;8.90;83.30;;;;;;4984769;28;20380;-80
2022/01/18 11:10:08;;;;;;;;;;;9.00;83.20;;;;;;4995138;28;19910;-80
2022/01/18 11:12:43;;;;;;;;;;;9.10;82.50;;;;;;5009373;28;19910;-81
2022/01/18 11:15:15;;;;;;;;;;;9.10;82.10;;;;;;4990634;28;19925;-80
2022/01/18 11:17:43;;;;;;;;;;;9.20;82.00;;;;;;4978187;28;19910;-80
2022/01/18 11:20:09;;;;;;;;;;;9.20;82.10;;;;;;4994833;28;19921;-82
2022/01/18 11:22:35;;;;;;;;;;;9.30;82.00;;;;;;4999704;28;19910;-81
2022/01/18 11:25:02;;;;;;;;;;;9.40;81.40;;;;;;5013948;28;19964;-81
2022/01/18 11:27:29;;;;;;;;;;;9.30;81.60;;;;;;5018249;28;19912;-80
2022/01/18 11:29:55;;;;;;;;;;;9.20;82.20;;;;;;4992010;28;19920;-80
2022/01/18 11:32:24;;;;;;;;;;;9.20;81.50;;;;;;4987972;28;20272;-78
2022/01/18 11:34:55;;;;;;;;;;;9.10;81.30;;;;;;4995783;28;20054;-78
2022/01/18 11:37:28;;;;;;;;;;;8.90;81.20;;;;;;5013378;28;19933;-78
2022/01/18 11:39:58;;;;;;;;;;;9.00;80.60;;;;;;4996508;28;20068;-83
2022/01/18 11:42:35;;;;;;;;;;;8.90;80.70;;;;;;4992626;28;19944;-79
2022/01/18 11:45:21;;;;;;;;;;;8.70;81.60;;;;;;4990421;28;19965;-79
2022/01/18 11:47:57;;;;;;;;;;;8.80;82.20;;;;;;5009574;28;20424;-79
2022/01/18 11:50:26;;;;;;;;;;;8.90;82.50;;;;;;5006123;28;19957;-80
2022/01/18 11:53:15;;;;;;;;;;;9.00;82.60;;;;;;4996066;28;19922;-81
2022/01/18 11:55:44;;;;;;;;;;;9.10;81.30;;;;;;4991928;28;19956;-80
2022/01/18 11:58:11;;;;;;;;;;;9.00;82.30;;;;;;4993120;28;19963;-81
2022/01/18 12:00:46;;;;;;;;;;;9.00;82.70;;;;;;4992582;28;19929;-81
2022/01/18 12:03:15;;;;;;;;;;;9.10;82.20;;;;;;4994745;28;20415;-80
2022/01/18 12:05:42;;;;;;;;;;;9.10;81.10;;;;;;5007266;28;19921;-79
2022/01/18 12:08:08;;;;;;;;;;;9.10;81.10;;;;;;4994537;28;19914;-80
2022/01/18 12:10:34;;;;;;;;;;;9.10;81.10;;;;;;4993362;28;19962;-80
2022/01/18 12:12:59;;;;;;;;;;;9.10;81.10;;;;;;4993744;28;20012;-80
2022/01/18 12:15:26;;;;;;;;;;;9.20;81.40;;;;;;4992310;28;20001;-80
2022/01/18 12:18:00;;;;;;;;;;;9.20;80.60;;;;;;4995062;28;20334;-81
2022/01/18 12:20:40;;;;;;;;;;;9.30;80.10;;;;;;5015881;28;19934;-80
2022/01/18 12:23:06;;;;;;;;;;;9.30;80.40;;;;;;4994284;28;19910;-81
2022/01/18 12:25:37;;;;;;;;;;;9.30;80.50;;;;;;5008165;28;19917;-80
2022/01/18 12:28:21;;;;;;;;;;;9.50;80.30;;;;;;4996258;28;19968;-81
2022/01/18 12:31:04;;;;;;;;;;;9.60;80.20;;;;;;4992386;28;20360;-79
2022/01/18 12:33:42;;;;;;;;;;;9.60;80.00;;;;;;4991741;28;19913;-80
2022/01/18 12:36:27;;;;;;;;;;;9.40;79.70;;;;;;4993324;28;19922;-80
2022/01/18 12:38:57;;;;;;;;;;;9.30;79.50;;;;;;5004295;28;19914;-81
2022/01/18 12:41:45;;;;;;;;;;;9.20;80.60;;;;;;4992914;28;19914;-79
2022/01/18 12:44:20;;;;;;;;;;;9.10;80.80;;;;;;5015005;28;20151;-79
2022/01/18 12:46:59;;;;;;;;;;;9.10;80.70;;;;;;4995934;28;20321;-81
2022/01/18 12:49:25;;;;;;;;;;;9.20;80.20;;;;;;5019948;28;19913;-81
2022/01/18 12:51:57;;;;;;;;;;;9.30;79.80;;;;;;5011907;28;19980;-81
2022/01/18 12:54:36;;;;;;;;;;;9.20;79.90;;;;;;4986932;28;19930;-81
2022/01/18 12:57:15;;;;;;;;;;;9.20;79.80;;;;;;4994368;28;20364;-80
2022/01/18 12:59:59;;;;;;;;;;;9.10;80.20;;;;;;4993363;28;19914;-78
2022/01/18 13:02:25;;;;;;;;;;;9.10;80.30;;;;;;4991609;28;19914;-80
2022/01/18 13:04:55;;;;;;;;;;;9.10;81.00;;;;;;5004243;28;19968;-78
2022/01/18 13:07:20;;;;;;;;;;;9.10;81.10;;;;;;4989155;28;20021;-79
2022/01/18 13:09:55;;;;;;;;;;;9.10;80.60;;;;;;4991427;28;19971;-78
2022/01/18 13:12:30;;;;;;;;;;;9.20;80.50;;;;;;4989165;28;20029;-79
2022/01/18 13:14:57;;;;;;;;;;;9.30;80.40;;;;;;4985839;28;19922;-78
2022/01/18 13:23:45;;;;;;;;;;;9.40;79.50;;;;;;4998531;28;20400;-80
2022/01/18 13:26:10;;;;;;;;;;;9.40;79.20;;;;;;4982940;28;19918;-80
2022/01/18 13:28:37;;;;;;;;;;;9.40;79.30;;;;;;4992160;28;19993;-80
2022/01/18 13:31:20;;;;;;;;;;;9.40;79.70;;;;;;4992580;28;19920;-81
2022/01/18 13:33:52;;;;;;;;;;;9.50;78.70;;;;;;4988258;28;20008;-80
2022/01/18 13:36:18;;;;;;;;;;;9.50;78.50;;;;;;4994867;28;19909;-79
2022/01/18 13:38:53;;;;;;;;;;;9.40;78.90;;;;;;4994286;28;20398;-81
2022/01/18 13:41:18;;;;;;;;;;;9.30;79.00;;;;;;4987206;28;19917;-81
2022/01/18 13:43:44;;;;;;;;;;;9.30;79.50;;;;;;4977134;28;19920;-80
2022/01/18 13:46:10;;;;;;;;;;;9.30;79.50;;;;;;4987479;28;19948;-80
2022/01/18 13:48:37;;;;;;;;;;;9.30;79.20;;;;;;4988133;28;19924;-80
2022/01/18 13:51:14;;;;;;;;;;;9.50;79.20;;;;;;4989374;28;19961;-80
2022/01/18 13:53:40;;;;;;;;;;;9.50;78.00;;;;;;4989079;28;19922;-80
2022/01/18 13:56:10;;;;;;;;;;;9.50;78.00;;;;;;4989382;28;20380;-80
2022/01/18 13:58:39;;;;;;;;;;;9.40;77.60;;;;;;5006320;28;19925;-80
2022/01/18 14:01:17;;;;;;;;;;;9.60;77.50;;;;;;5011134;28;19921;-81
2022/01/18 14:03:45;;;;;;;;;;;9.30;78.90;;;;;;4992945;28;19924;-80
2022/01/18 14:06:11;;;;;;;;;;;9.30;79.10;;;;;;4986422;28;19965;-81
2022/01/18 14:08:39;;;;;;;;;;;9.40;79.80;;;;;;4993842;28;19985;-81
2022/01/18 14:11:09;;;;;;;;;;;9.50;79.90;;;;;;4989677;28;19914;-80
2022/01/18 14:13:38;;;;;;;;;;;9.50;80.00;;;;;;4989917;28;19965;-81
2022/01/18 14:16:26;;;;;;;;;;;9.50;80.40;;;;;;4989085;28;19933;-79
2022/01/18 14:19:02;;;;;;;;;;;9.50;79.90;;;;;;4983032;28;20401;-78
2022/01/18 14:21:32;;;;;;;;;;;9.50;79.60;;;;;;4983746;28;20280;-79
2022/01/18 14:24:17;;;;;;;;;;;9.50;79.00;;;;;;4987482;28;19913;-80
2022/01/18 14:27:02;;;;;;;;;;;9.40;79.10;;;;;;4986700;28;19924;-80
2022/01/18 14:29:40;;;;;;;;;;;9.40;79.50;;;;;;5001628;28;19914;-79
2022/01/18 14:32:07;;;;;;;;;;;9.40;80.10;;;;;;4989394;28;20299;-81
2022/01/18 14:34:34;;;;;;;;;;;9.40;80.20;;;;;;4999765;28;19937;-79
2022/01/18 14:37:00;;;;;;;;;;;9.40;80.20;;;;;;4989688;28;20175;-80
2022/01/18 14:39:25;;;;;;;;;;;9.40;79.60;;;;;;4992308;28;19925;-79
2022/01/18 14:42:05;;;;;;;;;;;9.30;79.60;;;;;;4991582;28;19921;-79
2022/01/18 14:47:25;;;;;;;;;;;9.20;80.30;;;;;;4994226;28;19945;-79
2022/01/18 14:49:51;;;;;;;;;;;9.20;80.20;;;;;;4996088;28;19968;-79
2022/01/18 14:52:17;;;;;;;;;;;9.10;81.00;;;;;;4988286;28;19918;-79
2022/01/18 14:54:42;;;;;;;;;;;9.10;81.00;;;;;;4994933;28;19921;-80
2022/01/18 14:57:08;;;;;;;;;;;9.10;81.40;;;;;;4994334;28;19964;-80
2022/01/18 14:59:34;;;;;;;;;;;9.10;81.50;;;;;;5009379;28;21108;-81
2022/01/18 15:01:59;;;;;;;;;;;8.90;81.00;;;;;;4996372;28;20264;-80
2022/01/18 15:04:25;;;;;;;;;;;8.70;81.60;;;;;;4994430;28;20383;-79
2022/01/18 15:06:51;;;;;;;;;;;8.70;82.20;;;;;;4995616;28;20166;-80
2022/01/18 15:09:17;;;;;;;;;;;8.70;82.50;;;;;;5011190;28;19921;-78
2022/01/18 15:11:43;;;;;;;;;;;8.60;82.90;;;;;;4993992;28;20002;-80
2022/01/18 15:14:08;;;;;;;;;;;8.80;82.90;;;;;;4991448;28;19921;-81
2022/01/18 15:16:34;;;;;;;;;;;8.80;83.10;;;;;;4994123;28;19921;-80
2022/01/18 15:18:59;;;;;;;;;;;8.80;83.20;;;;;;4993302;28;20332;-82
2022/01/18 15:21:25;;;;;;;;;;;8.90;83.20;;;;;;4991634;28;19914;-81
2022/01/18 15:23:50;;;;;;;;;;;8.90;82.80;;;;;;4992389;28;20420;-80
2022/01/18 15:26:17;;;;;;;;;;;8.90;82.80;;;;;;4993184;28;19925;-79
2022/01/18 15:28:42;;;;;;;;;;;8.80;83.00;;;;;;4992309;28;19924;-81
2022/01/18 15:31:08;;;;;;;;;;;8.70;83.10;;;;;;4994307;28;19957;-80
2022/01/18 15:33:34;;;;;;;;;;;8.70;83.20;;;;;;4992531;28;19944;-81
2022/01/18 15:35:59;;;;;;;;;;;8.70;83.20;;;;;;4992291;28;19918;-82
2022/01/18 15:38:25;;;;;;;;;;;8.60;83.50;;;;;;4999861;28;19914;-82
2022/01/18 15:40:50;;;;;;;;;;;8.60;83.80;;;;;;5017597;28;19918;-79
2022/01/18 15:43:16;;;;;;;;;;;8.70;83.60;;;;;;5003553;28;19982;-80
2022/01/18 15:45:42;;;;;;;;;;;8.70;83.40;;;;;;5011625;28;19949;-80